Time;durP1;ratioP1;P1;durP2;ratioP2;P2;SDS_P1;SDS_P2;PMS_P1;PMS_P2;Temp;Humidity;BMP_temperature;BMP_pressure;BME280_temperature;BME280_humidity;BME280_pressure;Samples;Min_cycle;Max_cycle;Signal;HPM_P1;HPM_P2
2021/12/05 00:18:04;;;;;;;2.70;1.40;;;4.80;99.90;;;;;;5020402;28;20118;-66
2021/12/05 00:23:02;;;;;;;3.92;1.20;;;4.70;99.90;;;;;;5020600;28;20025;-67
2021/12/05 00:25:31;;;;;;;5.85;1.15;;;4.60;99.90;;;;;;5013884;28;20026;-66
2021/12/05 00:41:28;;;;;;;1.58;1.00;;;4.70;99.90;;;;;;5017224;28;20049;-66
2021/12/05 00:50:00;;;;;;;3.58;1.73;;;4.50;99.90;;;;;;5005137;28;20598;-66
2021/12/05 00:55:42;;;;;;;5.82;1.85;;;4.50;99.90;;;;;;5004438;28;20568;-66
2021/12/05 00:58:58;;;;;;;2.25;1.20;;;4.50;99.90;;;;;;5000439;28;20038;-66
2021/12/05 01:01:21;;;;;;;3.53;2.20;;;4.50;99.90;;;;;;5000703;28;20033;-66
2021/12/05 01:17:26;;;;;;;11.10;1.98;;;4.30;99.90;;;;;;5005840;28;20046;-66
2021/12/05 01:19:53;;;;;;;8.02;2.30;;;4.20;99.90;;;;;;5018031;28;20045;-66
2021/12/05 01:22:20;;;;;;;4.32;1.83;;;4.10;99.90;;;;;;5018362;28;20540;-66
2021/12/05 01:27:33;;;;;;;8.55;2.60;;;3.90;99.90;;;;;;5013778;28;20117;-66
2021/12/05 01:30:11;;;;;;;6.47;1.98;;;3.90;99.90;;;;;;5011341;28;20029;-66
2021/12/05 01:33:01;;;;;;;4.40;1.73;;;3.90;99.90;;;;;;5008870;28;20176;-66
2021/12/05 01:38:07;;;;;;;13.60;2.20;;;3.90;99.90;;;;;;5018794;28;20045;-66
2021/12/05 01:40:51;;;;;;;7.35;2.28;;;3.90;99.90;;;;;;5013999;28;20698;-66
2021/12/05 01:57:33;;;;;;;2.92;1.95;;;4.00;99.90;;;;;;5012655;28;20036;-66
2021/12/05 02:30:12;;;;;;;5.78;2.10;;;4.60;99.90;;;;;;5017020;28;20033;-66
2021/12/05 02:33:01;;;;;;;7.20;1.95;;;4.60;99.90;;;;;;5014843;28;20080;-66
2021/12/05 02:43:09;;;;;;;3.30;1.58;;;4.60;99.90;;;;;;5021432;28;20041;-66
2021/12/05 02:45:39;;;;;;;2.88;1.77;;;4.60;99.90;;;;;;5027495;28;20018;-66
2021/12/05 02:48:06;;;;;;;1.48;1.00;;;4.60;99.90;;;;;;5027952;28;20122;-66
2021/12/05 02:50:33;;;;;;;3.33;1.48;;;4.60;99.90;;;;;;5028374;28;20026;-66
2021/12/05 02:53:07;;;;;;;2.45;1.13;;;4.60;99.90;;;;;;5023596;28;20029;-66
2021/12/05 02:55:39;;;;;;;1.95;1.23;;;4.60;99.90;;;;;;5025969;28;20032;-66
2021/12/05 02:58:24;;;;;;;1.98;1.15;;;4.60;99.90;;;;;;5028000;28;20029;-66
2021/12/05 03:03:23;;;;;;;3.08;1.40;;;4.50;99.90;;;;;;5024301;28;20018;-66
2021/12/05 03:05:59;;;;;;;2.05;1.02;;;4.50;99.90;;;;;;5027018;28;20053;-66
2021/12/05 03:08:25;;;;;;;7.03;1.20;;;4.50;99.90;;;;;;5022986;28;20018;-66
2021/12/05 03:10:52;;;;;;;3.55;1.23;;;4.50;99.90;;;;;;5022931;28;20362;-66
2021/12/05 03:13:18;;;;;;;1.90;1.08;;;4.50;99.90;;;;;;5028280;28;20026;-66
2021/12/05 03:15:44;;;;;;;4.18;1.10;;;4.50;99.90;;;;;;5021996;28;20037;-66
2021/12/05 03:18:10;;;;;;;2.28;1.33;;;4.50;99.90;;;;;;5026125;28;20527;-66
2021/12/05 03:20:36;;;;;;;3.25;1.63;;;4.50;99.90;;;;;;5028798;28;20420;-66
2021/12/05 03:23:02;;;;;;;3.72;1.45;;;4.60;99.90;;;;;;5025345;28;20022;-66
2021/12/05 03:25:28;;;;;;;1.92;1.60;;;4.60;99.90;;;;;;5028905;28;20021;-66
2021/12/05 03:27:55;;;;;;;7.05;1.60;;;4.70;99.90;;;;;;5028580;28;20056;-66
2021/12/05 03:30:24;;;;;;;1.90;1.20;;;4.60;99.90;;;;;;5025559;28;20389;-66
2021/12/05 03:32:52;;;;;;;9.25;2.67;;;4.60;99.90;;;;;;5024914;28;20032;-67
2021/12/05 03:35:21;;;;;;;13.13;1.20;;;4.70;99.90;;;;;;5028914;28;20026;-67
2021/12/05 03:37:47;;;;;;;4.47;1.67;;;4.80;99.90;;;;;;5029940;28;20117;-67
2021/12/05 03:40:14;;;;;;;2.95;1.27;;;4.90;99.90;;;;;;5027637;28;20112;-67
2021/12/05 03:42:40;;;;;;;2.33;1.02;;;4.80;99.90;;;;;;5026771;28;20026;-67
2021/12/05 03:45:09;;;;;;;11.50;2.50;;;4.90;99.90;;;;;;5029128;28;20033;-67
2021/12/05 03:47:36;;;;;;;2.00;1.05;;;4.80;99.90;;;;;;5026718;28;20391;-67
2021/12/05 03:50:05;;;;;;;9.23;1.77;;;4.80;99.90;;;;;;5027765;28;20371;-67
2021/12/05 03:52:33;;;;;;;3.80;1.50;;;4.80;99.90;;;;;;5026314;28;20029;-67
2021/12/05 03:54:58;;;;;;;2.05;1.13;;;4.70;99.90;;;;;;5028428;28;20064;-67
2021/12/05 03:57:24;;;;;;;4.28;1.83;;;4.70;99.90;;;;;;5031586;28;20101;-67
2021/12/05 03:59:50;;;;;;;4.25;1.42;;;4.70;99.90;;;;;;5030719;28;20041;-67
2021/12/05 04:02:15;;;;;;;0.80;0.80;;;4.70;99.90;;;;;;5022617;28;20425;-67
2021/12/05 04:04:41;;;;;;;0.80;0.80;;;4.70;99.90;;;;;;5031345;28;20033;-67
2021/12/05 04:07:07;;;;;;;4.07;1.40;;;4.60;99.90;;;;;;5021267;28;20050;-67
2021/12/05 04:09:34;;;;;;;5.15;1.85;;;4.60;99.90;;;;;;5028361;28;20499;-67
2021/12/05 04:12:02;;;;;;;1.42;0.98;;;4.60;99.90;;;;;;5027724;28;20040;-67
2021/12/05 04:14:36;;;;;;;2.63;1.60;;;4.60;99.90;;;;;;5024225;28;20026;-67
2021/12/05 04:17:03;;;;;;;5.68;2.25;;;4.60;99.90;;;;;;5027741;28;20037;-67
2021/12/05 04:19:29;;;;;;;2.58;1.27;;;4.50;99.90;;;;;;5030342;28;20448;-67
2021/12/05 04:21:55;;;;;;;5.50;1.48;;;4.50;99.90;;;;;;5023445;28;20405;-67
2021/12/05 04:24:22;;;;;;;4.95;2.03;;;4.50;99.90;;;;;;5018435;28;20053;-67
2021/12/05 04:26:48;;;;;;;12.93;1.95;;;4.50;99.90;;;;;;5024265;28;20501;-67
2021/12/05 04:29:15;;;;;;;2.90;2.25;;;4.50;99.90;;;;;;5029050;28;20543;-67
2021/12/05 04:31:41;;;;;;;1.00;0.85;;;4.40;99.90;;;;;;5028532;28;20069;-67
2021/12/05 04:34:08;;;;;;;6.20;1.25;;;4.40;99.90;;;;;;5014878;28;20525;-67
2021/12/05 04:36:34;;;;;;;1.67;1.25;;;4.40;99.90;;;;;;5025651;28;20036;-67
2021/12/05 04:38:59;;;;;;;6.35;1.85;;;4.40;99.90;;;;;;5017470;28;20573;-67
2021/12/05 04:41:25;;;;;;;4.07;1.65;;;4.40;99.90;;;;;;5024208;28;20100;-67
2021/12/05 04:43:52;;;;;;;5.53;1.65;;;4.40;99.90;;;;;;5016881;28;20029;-67
2021/12/05 04:46:22;;;;;;;11.18;1.70;;;4.40;99.90;;;;;;5028544;28;20035;-67
2021/12/05 04:48:51;;;;;;;1.63;0.98;;;4.40;99.90;;;;;;5023588;28;20075;-68
2021/12/05 04:51:19;;;;;;;1.45;0.75;;;4.40;99.90;;;;;;5027907;28;20029;-67
2021/12/05 04:53:45;;;;;;;1.17;0.93;;;4.40;99.90;;;;;;5029129;28;20125;-67
2021/12/05 04:56:11;;;;;;;0.90;0.85;;;4.40;99.90;;;;;;5029769;28;20112;-67
2021/12/05 04:58:37;;;;;;;1.17;1.02;;;4.40;99.90;;;;;;5029672;28;20389;-67
2021/12/05 05:01:04;;;;;;;0.68;0.68;;;4.50;99.90;;;;;;5027439;28;20044;-67
2021/12/05 05:03:32;;;;;;;2.35;1.58;;;4.50;99.90;;;;;;5025598;28;20025;-67
2021/12/05 05:06:04;;;;;;;13.65;1.52;;;4.50;99.90;;;;;;5023619;28;20041;-67
2021/12/05 05:08:31;;;;;;;0.70;0.70;;;4.40;99.90;;;;;;5026924;28;20104;-67
2021/12/05 05:10:59;;;;;;;4.30;1.50;;;4.40;99.90;;;;;;5028405;28;20417;-67
2021/12/05 05:13:26;;;;;;;0.93;0.73;;;4.40;99.90;;;;;;5025503;28;20385;-67
2021/12/05 05:15:52;;;;;;;1.73;0.98;;;4.40;99.90;;;;;;5023038;28;20028;-67
2021/12/05 05:18:18;;;;;;;15.75;1.23;;;4.50;99.90;;;;;;5028194;28;20033;-67
2021/12/05 05:47:31;;;;;;;2.15;0.90;;;4.40;99.90;;;;;;5024289;28;20029;-67
2021/12/05 05:49:58;;;;;;;2.20;1.02;;;4.40;99.90;;;;;;5020575;28;20037;-67
2021/12/05 05:52:26;;;;;;;1.05;0.95;;;4.30;99.90;;;;;;5029348;28;20013;-67
2021/12/05 05:54:54;;;;;;;0.85;0.82;;;4.30;99.90;;;;;;5027097;28;20021;-67
2021/12/05 05:57:24;;;;;;;0.90;0.90;;;4.30;99.90;;;;;;5026820;28;20531;-67
2021/12/05 06:00:06;;;;;;;0.82;0.70;;;4.30;99.90;;;;;;5028668;28;20555;-67
2021/12/05 06:05:17;;;;;;;2.00;1.48;;;4.10;99.90;;;;;;5021471;28;20117;-67
2021/12/05 06:07:44;;;;;;;3.20;1.45;;;4.10;99.90;;;;;;5025479;28;20030;-67
2021/12/05 06:10:12;;;;;;;1.70;1.00;;;4.10;99.90;;;;;;5019721;28;20038;-67
2021/12/05 06:12:39;;;;;;;1.95;1.10;;;4.00;99.90;;;;;;5025110;28;20056;-67
2021/12/05 06:15:08;;;;;;;2.25;1.35;;;4.00;99.90;;;;;;5023337;28;20026;-67
2021/12/05 06:17:34;;;;;;;3.00;1.30;;;4.00;99.90;;;;;;5027134;28;20420;-67
2021/12/05 06:20:00;;;;;;;1.20;0.80;;;4.00;99.90;;;;;;5028045;28;20079;-67
2021/12/05 06:22:25;;;;;;;1.63;0.80;;;4.00;99.90;;;;;;5026288;28;20436;-67
2021/12/05 06:24:51;;;;;;;0.60;0.60;;;4.00;99.90;;;;;;5027272;28;20037;-67
2021/12/05 06:27:17;;;;;;;1.38;0.93;;;3.90;99.90;;;;;;5024087;28;20473;-67
2021/12/05 06:29:55;;;;;;;1.83;0.95;;;3.90;99.90;;;;;;5026362;28;20390;-67
2021/12/05 06:36:46;;;;;;;0.88;0.82;;;3.90;99.90;;;;;;5027627;28;20028;-67
2021/12/05 06:38:09;;;;;;;2.72;1.25;;;3.90;99.90;;;;;;5027213;28;20033;-67
2021/12/05 06:40:51;;;;;;;1.80;1.50;;;3.80;99.90;;;;;;5023308;28;20254;-67
2021/12/05 06:46:21;;;;;;;0.70;0.70;;;3.80;99.90;;;;;;5026551;28;20022;-67
2021/12/05 06:48:48;;;;;;;0.68;0.68;;;3.70;99.90;;;;;;5026664;28;20048;-67
2021/12/05 06:51:17;;;;;;;0.77;0.77;;;3.80;99.90;;;;;;5019889;28;20029;-67
2021/12/05 06:53:43;;;;;;;1.37;0.80;;;3.90;99.90;;;;;;5028020;28;20025;-67
2021/12/05 06:56:09;;;;;;;1.48;0.90;;;3.80;99.90;;;;;;5025225;28;20284;-67
2021/12/05 06:58:35;;;;;;;1.27;1.10;;;3.80;99.90;;;;;;5026595;28;20034;-67
2021/12/05 07:01:05;;;;;;;0.70;0.70;;;3.80;99.90;;;;;;5026185;28;20104;-67
2021/12/05 07:03:30;;;;;;;1.33;1.05;;;3.80;99.90;;;;;;5027826;28;20535;-67
2021/12/05 07:06:06;;;;;;;18.10;2.08;;;3.80;99.90;;;;;;5026613;28;20120;-67
2021/12/05 07:08:35;;;;;;;1.15;1.05;;;3.70;99.90;;;;;;5024447;28;20028;-67
2021/12/05 07:11:06;;;;;;;1.27;0.90;;;3.70;99.90;;;;;;5025818;28;20516;-67
2021/12/05 07:16:30;;;;;;;0.70;0.70;;;3.70;99.90;;;;;;5025004;28;20037;-67
2021/12/05 07:21:48;;;;;;;3.53;1.13;;;3.70;99.90;;;;;;5028398;28;20025;-67
2021/12/05 07:40:23;;;;;;;0.93;0.80;;;4.00;99.90;;;;;;5026522;28;20068;-67
2021/12/05 07:42:49;;;;;;;2.08;0.90;;;4.10;99.90;;;;;;5030432;28;20045;-67
2021/12/05 07:45:21;;;;;;;0.60;0.60;;;4.10;99.90;;;;;;5025577;28;20038;-67
2021/12/05 07:47:51;;;;;;;1.55;1.17;;;4.20;99.90;;;;;;5023159;28;20033;-67
2021/12/05 07:50:17;;;;;;;1.95;1.02;;;4.30;99.90;;;;;;5024110;28;20034;-67
2021/12/05 07:52:51;;;;;;;2.13;0.90;;;4.30;99.90;;;;;;5031138;28;20025;-67
2021/12/05 08:00:38;;;;;;;0.88;0.85;;;4.30;99.90;;;;;;5031681;28;20111;-67
2021/12/05 08:14:35;;;;;;;0.95;0.88;;;4.50;99.90;;;;;;4999354;28;20557;-69
2021/12/05 08:17:03;;;;;;;3.38;1.67;;;4.40;99.90;;;;;;5043788;28;20022;-67
2021/12/05 08:19:28;;;;;;;3.60;1.40;;;4.40;99.90;;;;;;5031325;28;20485;-67
2021/12/05 08:21:55;;;;;;;0.70;0.70;;;4.50;99.90;;;;;;5027599;28;20040;-67
2021/12/05 08:24:29;;;;;;;1.77;1.30;;;4.50;99.90;;;;;;5029385;28;20057;-67
2021/12/05 08:26:55;;;;;;;2.50;1.30;;;4.50;99.90;;;;;;5027332;28;20064;-67
2021/12/05 08:29:31;;;;;;;0.85;0.80;;;4.50;99.90;;;;;;5027665;28;20170;-67
2021/12/05 08:32:47;;;;;;;0.95;0.90;;;4.50;99.90;;;;;;5030035;28;20402;-67
2021/12/05 08:35:08;;;;;;;1.55;1.13;;;4.50;99.90;;;;;;5022512;28;20450;-67
2021/12/05 08:40:33;;;;;;;1.42;1.00;;;4.50;99.90;;;;;;5026741;28;20034;-67
2021/12/05 10:10:01;;;;;;;2.25;1.33;;;5.70;99.90;;;;;;5024619;28;20037;-67
2021/12/05 10:15:02;;;;;;;2.92;1.13;;;5.70;99.90;;;;;;5027227;28;20037;-67
2021/12/05 10:20:23;;;;;;;2.33;1.38;;;5.80;99.90;;;;;;5018223;28;20102;-67
2021/12/05 10:34:42;;;;;;;0.93;0.80;;;5.60;99.90;;;;;;5018313;28;20099;-67
2021/12/05 10:37:24;;;;;;;2.22;1.00;;;5.70;99.90;;;;;;5003044;28;20025;-67
2021/12/05 10:40:07;;;;;;;2.15;0.90;;;5.70;99.90;;;;;;5022469;28;20505;-67
2021/12/05 10:42:45;;;;;;;8.27;1.55;;;5.70;99.90;;;;;;5021000;28;20863;-67
2021/12/05 10:45:29;;;;;;;2.92;1.20;;;5.80;99.90;;;;;;5021591;28;20398;-67
2021/12/05 10:47:57;;;;;;;3.55;1.52;;;5.90;99.90;;;;;;5024386;28;20100;-67
2021/12/05 10:50:40;;;;;;;20.25;1.13;;;5.80;99.90;;;;;;5023777;28;20029;-67
2021/12/05 10:53:33;;;;;;;1.02;0.90;;;5.80;99.90;;;;;;5023652;28;20125;-67
2021/12/05 10:56:07;;;;;;;3.80;1.50;;;5.60;99.90;;;;;;5020420;28;20095;-67
2021/12/05 10:58:40;;;;;;;1.55;1.13;;;5.60;99.90;;;;;;5021172;28;20048;-67
2021/12/05 11:01:10;;;;;;;1.30;0.90;;;5.60;99.90;;;;;;5022682;28;20846;-67
2021/12/05 11:03:36;;;;;;;1.23;0.93;;;5.50;99.90;;;;;;5017691;28;20017;-67
2021/12/05 11:06:02;;;;;;;2.60;1.17;;;5.50;99.90;;;;;;5020093;28;20087;-67
2021/12/05 11:08:38;;;;;;;1.25;0.85;;;5.50;99.90;;;;;;5021396;28;20668;-67
2021/12/05 11:11:12;;;;;;;2.65;1.38;;;5.40;99.90;;;;;;5024074;28;20388;-67
2021/12/05 11:13:40;;;;;;;3.17;1.00;;;5.40;99.90;;;;;;5019923;28;20634;-67
2021/12/05 11:16:41;;;;;;;0.77;0.75;;;5.50;99.90;;;;;;5016351;28;20029;-67
2021/12/05 11:19:31;;;;;;;0.70;0.70;;;5.50;99.90;;;;;;5024363;28;20048;-67
2021/12/05 11:22:05;;;;;;;1.30;0.82;;;5.60;99.90;;;;;;5008902;28;20119;-67
2021/12/05 11:24:35;;;;;;;1.20;0.93;;;5.70;99.90;;;;;;5011553;28;20038;-67
2021/12/05 11:27:16;;;;;;;2.72;1.25;;;5.70;99.90;;;;;;5019345;28;20037;-67
2021/12/05 11:29:49;;;;;;;1.05;0.90;;;5.80;99.90;;;;;;5022203;28;20029;-67
2021/12/05 11:32:38;;;;;;;1.80;1.27;;;5.90;99.90;;;;;;5023579;28;20026;-67
2021/12/05 11:35:37;;;;;;;1.92;1.00;;;5.90;99.90;;;;;;5018481;28;20038;-67
2021/12/05 11:38:08;;;;;;;1.95;1.02;;;6.00;99.90;;;;;;5019305;28;20089;-67
2021/12/05 11:41:03;;;;;;;1.77;1.20;;;6.10;99.90;;;;;;5018022;28;20029;-67
2021/12/05 11:43:41;;;;;;;2.47;1.00;;;6.10;99.90;;;;;;5018773;28;20110;-67
2021/12/05 11:46:20;;;;;;;1.45;1.00;;;6.30;99.90;;;;;;5012454;28;20033;-67
2021/12/05 11:48:48;;;;;;;2.10;1.00;;;6.30;99.90;;;;;;5026229;28;20044;-67
2021/12/05 11:51:32;;;;;;;2.42;1.10;;;6.30;99.90;;;;;;5023341;28;20397;-67
2021/12/05 11:54:10;;;;;;;1.85;1.00;;;6.30;99.90;;;;;;5024267;28;20040;-68
2021/12/05 11:56:44;;;;;;;1.20;0.90;;;6.40;99.90;;;;;;5023090;28;20041;-68
2021/12/05 11:59:15;;;;;;;3.38;1.08;;;6.40;99.90;;;;;;5023398;28;20024;-68
2021/12/05 12:01:46;;;;;;;1.17;0.80;;;6.40;99.90;;;;;;5015634;28;20036;-67
2021/12/05 12:04:17;;;;;;;2.70;1.33;;;6.50;99.90;;;;;;5025141;28;20091;-67
2021/12/05 12:06:44;;;;;;;1.02;0.90;;;6.50;99.90;;;;;;5024034;28;20580;-67
2021/12/05 12:09:10;;;;;;;2.15;0.90;;;6.40;99.90;;;;;;5018809;28;20044;-67
2021/12/05 12:11:36;;;;;;;1.98;1.20;;;6.40;99.90;;;;;;5030035;28;20444;-67
2021/12/05 12:14:03;;;;;;;6.13;1.20;;;6.40;99.90;;;;;;5027904;28;20053;-67
2021/12/05 12:16:33;;;;;;;4.90;1.23;;;6.40;99.90;;;;;;5026861;28;20044;-67
2021/12/05 12:19:05;;;;;;;4.03;1.33;;;6.20;99.90;;;;;;5022568;28;20065;-67
2021/12/05 12:21:41;;;;;;;1.80;1.10;;;6.10;99.90;;;;;;5027129;28;20117;-68
2021/12/05 12:24:09;;;;;;;2.03;1.15;;;6.20;99.90;;;;;;5018902;28;20378;-68
2021/12/05 12:26:37;;;;;;;3.17;1.52;;;6.40;99.90;;;;;;5022244;28;20029;-67
2021/12/05 12:29:04;;;;;;;3.03;1.38;;;6.40;99.90;;;;;;5024148;28;20026;-67
2021/12/05 12:31:35;;;;;;;3.55;1.20;;;6.50;99.90;;;;;;5025745;28;20029;-67
2021/12/05 12:34:08;;;;;;;4.05;1.70;;;6.60;99.90;;;;;;5027443;28;20034;-68
2021/12/05 12:36:48;;;;;;;2.58;1.25;;;6.60;99.90;;;;;;5025039;28;20032;-67
2021/12/05 12:39:16;;;;;;;7.60;1.27;;;6.60;99.90;;;;;;5023110;28;20055;-68
2021/12/05 12:42:15;;;;;;;5.68;1.17;;;6.70;99.90;;;;;;5029379;28;20040;-68
2021/12/05 12:45:09;;;;;;;3.25;1.08;;;6.90;99.90;;;;;;5026529;28;20120;-68
2021/12/05 12:47:42;;;;;;;1.20;0.80;;;6.90;99.90;;;;;;5025945;28;20013;-68
2021/12/05 12:50:34;;;;;;;1.40;1.15;;;6.90;99.90;;;;;;5030528;28;20544;-67
2021/12/05 12:53:08;;;;;;;0.90;0.70;;;6.80;99.90;;;;;;5025615;28;20021;-67
2021/12/05 12:55:36;;;;;;;1.15;0.98;;;6.80;99.90;;;;;;5021362;28;20049;-67
2021/12/05 12:58:06;;;;;;;1.52;0.93;;;6.90;99.90;;;;;;5029210;28;20071;-67
2021/12/05 13:00:34;;;;;;;1.17;0.80;;;7.00;99.90;;;;;;5028555;28;20017;-67
2021/12/05 13:03:12;;;;;;;1.92;0.90;;;7.10;99.90;;;;;;5024209;28;20735;-67
2021/12/05 13:11:17;;;;;;;1.70;0.80;;;7.30;99.90;;;;;;5017210;28;20044;-67
2021/12/05 13:13:56;;;;;;;1.23;0.90;;;7.20;99.90;;;;;;5021127;28;20057;-67
2021/12/05 13:16:28;;;;;;;2.22;1.10;;;7.00;99.90;;;;;;5023125;28;20040;-67
2021/12/05 13:19:06;;;;;;;2.53;1.00;;;7.00;99.90;;;;;;5029286;28;20025;-68
2021/12/05 13:21:38;;;;;;;0.77;0.77;;;6.90;99.90;;;;;;5024269;28;20021;-67
2021/12/05 13:24:27;;;;;;;1.33;0.98;;;6.90;99.90;;;;;;5022153;28;20528;-67
2021/12/05 13:27:01;;;;;;;0.95;0.82;;;6.90;99.90;;;;;;5024612;28;20033;-67
2021/12/05 13:29:29;;;;;;;1.02;0.90;;;6.70;99.90;;;;;;5023796;28;20029;-67
2021/12/05 13:32:06;;;;;;;1.25;1.00;;;6.60;99.90;;;;;;5028093;28;20064;-67
2021/12/05 13:34:41;;;;;;;2.47;1.10;;;6.60;99.90;;;;;;5025439;28;20093;-67
2021/12/05 13:37:06;;;;;;;0.95;0.88;;;6.50;99.90;;;;;;5027076;28;20036;-68
2021/12/05 13:39:34;;;;;;;3.03;1.25;;;6.50;99.90;;;;;;5023592;28;20524;-67
2021/12/05 13:42:01;;;;;;;2.10;0.90;;;6.60;99.90;;;;;;5024149;28;20047;-67
2021/12/05 13:44:59;;;;;;;1.40;0.90;;;6.60;99.90;;;;;;5018226;28;20032;-68
2021/12/05 13:47:29;;;;;;;2.03;0.93;;;6.60;99.90;;;;;;5017243;28;20124;-67
2021/12/05 13:53:02;;;;;;;0.80;0.80;;;6.60;99.90;;;;;;5023368;28;20029;-67
2021/12/05 13:55:50;;;;;;;2.65;1.10;;;6.60;99.90;;;;;;5016329;28;20053;-67
2021/12/05 13:58:24;;;;;;;1.13;0.75;;;6.60;99.90;;;;;;5017981;28;20022;-67
2021/12/05 14:01:05;;;;;;;1.42;1.02;;;6.40;99.90;;;;;;5019613;28;20095;-68
2021/12/05 14:04:00;;;;;;;0.82;0.80;;;6.50;99.90;;;;;;5020383;28;20032;-67
2021/12/05 14:06:54;;;;;;;0.80;0.80;;;6.50;99.90;;;;;;5011063;28;20133;-67
2021/12/05 14:09:33;;;;;;;4.72;1.70;;;6.60;99.90;;;;;;5020909;28;20106;-67
2021/12/05 14:12:10;;;;;;;0.75;0.75;;;6.60;99.90;;;;;;5016310;28;20021;-67
2021/12/05 14:14:38;;;;;;;1.80;0.88;;;6.50;99.90;;;;;;5022645;28;20034;-67
2021/12/05 14:17:15;;;;;;;0.82;0.80;;;6.50;99.90;;;;;;5017961;28;20100;-67
2021/12/05 14:19:44;;;;;;;1.35;0.80;;;6.50;99.90;;;;;;5023405;28;20018;-68
2021/12/05 14:22:14;;;;;;;1.42;1.08;;;6.50;99.90;;;;;;5013533;28;20036;-66
2021/12/05 14:24:43;;;;;;;2.63;0.95;;;6.50;99.90;;;;;;5019272;28;20022;-66
2021/12/05 14:27:13;;;;;;;1.90;0.80;;;6.40;99.90;;;;;;5013046;28;20044;-66
2021/12/05 14:29:40;;;;;;;;;;;6.40;99.90;;;;;;5021518;28;20025;-66
2021/12/05 14:32:18;;;;;;;2.60;1.10;;;6.30;99.90;;;;;;5022655;28;19911;-66
2021/12/05 14:34:43;;;;;;;1.95;0.95;;;6.30;99.90;;;;;;5019077;28;20092;-66
2021/12/05 14:37:17;;;;;;;1.20;0.82;;;6.40;99.90;;;;;;5019012;28;20033;-66
2021/12/05 14:39:55;;;;;;;9.02;1.02;;;6.50;99.90;;;;;;5017565;28;20075;-66
2021/12/05 14:42:24;;;;;;;2.05;1.10;;;6.40;99.90;;;;;;5012693;28;20021;-66
2021/12/05 14:45:00;;;;;;;3.95;1.40;;;6.50;99.90;;;;;;5018823;28;20018;-66
2021/12/05 14:47:28;;;;;;;3.80;1.30;;;6.40;99.90;;;;;;5017229;28;20024;-66
2021/12/05 14:50:00;;;;;;;4.25;1.25;;;6.40;99.90;;;;;;5015160;28;20030;-66
2021/12/05 14:52:33;;;;;;;3.17;1.20;;;6.30;99.90;;;;;;5021415;28;20028;-66
2021/12/05 14:55:01;;;;;;;1.35;1.08;;;6.20;99.90;;;;;;5018331;28;20033;-66
2021/12/05 14:57:31;;;;;;;3.13;1.48;;;6.10;99.90;;;;;;5019932;28;20025;-66
2021/12/05 15:00:11;;;;;;;2.15;1.15;;;6.10;99.90;;;;;;5020565;28;20029;-68
2021/12/05 15:02:37;;;;;;;2.55;1.30;;;6.00;99.90;;;;;;5019448;28;20030;-66
2021/12/05 15:05:07;;;;;;;5.80;1.80;;;5.90;99.90;;;;;;5020621;28;20037;-66
2021/12/05 15:07:33;;;;;;;6.85;2.45;;;5.80;99.90;;;;;;5018977;28;20061;-66
2021/12/05 15:09:58;;;;;;;7.45;1.77;;;5.80;99.90;;;;;;5012468;28;20499;-66
2021/12/05 15:12:28;;;;;;;4.65;1.75;;;5.70;99.90;;;;;;5016981;28;20085;-66
2021/12/05 15:14:58;;;;;;;4.05;2.00;;;5.80;99.90;;;;;;5016803;28;20079;-66
2021/12/05 15:17:27;;;;;;;8.02;3.00;;;5.70;99.90;;;;;;5018877;28;20096;-66
2021/12/05 15:19:57;;;;;;;4.93;1.98;;;5.80;99.90;;;;;;5017760;28;20040;-66
2021/12/05 15:22:23;;;;;;;3.78;1.52;;;5.70;99.90;;;;;;5022428;28;20017;-66
2021/12/05 15:24:54;;;;;;;9.93;2.22;;;5.60;99.90;;;;;;5026176;28;20040;-67
2021/12/05 15:27:24;;;;;;;10.25;2.75;;;5.50;99.90;;;;;;5027046;28;20029;-66
2021/12/05 15:29:59;;;;;;;4.03;1.87;;;5.40;99.90;;;;;;5023794;28;20025;-66
2021/12/05 15:32:28;;;;;;;7.22;2.63;;;5.30;99.90;;;;;;5024994;28;20456;-66
2021/12/05 15:35:01;;;;;;;3.63;1.45;;;5.30;99.90;;;;;;5025123;28;20053;-66
2021/12/05 15:37:27;;;;;;;3.10;1.58;;;5.20;99.90;;;;;;5022139;28;20045;-66
2021/12/05 15:39:55;;;;;;;4.15;1.80;;;5.30;99.90;;;;;;5024774;28;20553;-66
2021/12/05 15:42:23;;;;;;;6.18;2.42;;;5.40;99.90;;;;;;5026001;28;20088;-68
2021/12/05 15:44:51;;;;;;;5.13;1.73;;;5.40;99.90;;;;;;5023542;28;20040;-66
2021/12/05 15:47:27;;;;;;;9.05;2.67;;;5.40;99.90;;;;;;5024674;28;20044;-67
2021/12/05 15:50:10;;;;;;;5.05;1.75;;;5.40;99.90;;;;;;5023280;28;20105;-66
2021/12/05 15:52:47;;;;;;;5.45;2.17;;;5.20;99.90;;;;;;5024676;28;20018;-66
2021/12/05 15:55:35;;;;;;;8.75;2.83;;;5.00;99.90;;;;;;5019964;28;20107;-66
2021/12/05 15:58:09;;;;;;;7.85;2.38;;;4.90;99.90;;;;;;5027537;28;20506;-66
2021/12/05 16:00:41;;;;;;;6.30;2.13;;;4.90;99.90;;;;;;5018488;28;20018;-66
2021/12/05 16:03:11;;;;;;;5.82;2.33;;;4.80;99.90;;;;;;5021729;28;20108;-66
2021/12/05 16:05:39;;;;;;;5.53;2.33;;;4.80;99.90;;;;;;5016402;28;20092;-66
2021/12/05 16:08:14;;;;;;;4.50;2.03;;;4.80;99.90;;;;;;5026796;28;20083;-66
2021/12/05 16:10:45;;;;;;;5.35;2.17;;;4.80;99.90;;;;;;5019160;28;20025;-66
2021/12/05 16:13:15;;;;;;;6.40;2.25;;;4.70;99.90;;;;;;5021421;28;20044;-66
2021/12/05 16:15:43;;;;;;;5.97;1.95;;;4.60;99.90;;;;;;5019426;28;20033;-66
2021/12/05 16:18:10;;;;;;;6.00;2.20;;;4.60;99.90;;;;;;5024228;28;20032;-66
2021/12/05 16:20:51;;;;;;;5.00;2.00;;;4.70;99.90;;;;;;5024560;28;20025;-66
2021/12/05 16:23:27;;;;;;;9.50;3.58;;;4.70;99.90;;;;;;5022962;28;20097;-66
2021/12/05 16:26:24;;;;;;;8.07;3.25;;;4.70;99.90;;;;;;5025316;28;20447;-66
2021/12/05 16:28:56;;;;;;;6.72;2.75;;;4.70;99.90;;;;;;5012320;28;20045;-66
2021/12/05 16:31:23;;;;;;;6.05;3.05;;;4.70;99.90;;;;;;5025177;28;20087;-66
2021/12/05 16:33:53;;;;;;;10.95;3.28;;;4.80;99.90;;;;;;5025305;28;20512;-66
2021/12/05 16:36:19;;;;;;;6.70;2.75;;;4.90;99.90;;;;;;5020536;28;20041;-66
2021/12/05 16:38:50;;;;;;;10.98;4.35;;;4.80;99.90;;;;;;5022713;28;20130;-66
2021/12/05 16:41:28;;;;;;;12.88;4.35;;;4.80;99.90;;;;;;5021987;28;20029;-66
2021/12/05 16:44:03;;;;;;;13.18;4.00;;;4.60;99.90;;;;;;5021655;28;20032;-66
2021/12/05 16:46:51;;;;;;;12.45;4.25;;;4.40;99.90;;;;;;5022178;28;20033;-66
2021/12/05 16:49:24;;;;;;;15.30;5.22;;;4.60;99.90;;;;;;5020953;28;20448;-66
2021/12/05 16:52:01;;;;;;;9.70;3.00;;;4.60;99.90;;;;;;5025603;28;20028;-66
2021/12/05 16:54:44;;;;;;;11.00;3.55;;;4.60;99.90;;;;;;5019603;28;20026;-66
2021/12/05 16:57:12;;;;;;;8.48;3.45;;;4.40;99.90;;;;;;5020962;28;20025;-68
2021/12/05 16:59:45;;;;;;;5.78;2.40;;;4.50;99.90;;;;;;5018546;28;20025;-67
2021/12/05 17:02:20;;;;;;;11.23;4.07;;;4.60;99.90;;;;;;5021887;28;20029;-67
2021/12/05 17:05:06;;;;;;;7.82;3.20;;;4.50;99.90;;;;;;5024059;28;20041;-66
2021/12/05 17:07:42;;;;;;;13.32;4.40;;;4.40;99.90;;;;;;5019016;28;20041;-68
2021/12/05 17:10:40;;;;;;;10.00;3.63;;;4.20;99.90;;;;;;5024382;28;20559;-66
2021/12/05 17:13:14;;;;;;;8.00;2.90;;;4.20;99.90;;;;;;5023513;28;20047;-68
2021/12/05 17:16:00;;;;;;;8.05;3.38;;;4.10;99.90;;;;;;5020056;28;20113;-67
2021/12/05 17:18:45;;;;;;;7.40;3.03;;;4.10;99.90;;;;;;5024064;28;20025;-67
2021/12/05 17:21:23;;;;;;;8.20;3.22;;;4.10;99.90;;;;;;5021517;28;20060;-67
2021/12/05 17:23:53;;;;;;;8.25;2.88;;;4.00;99.90;;;;;;5024279;28;20041;-67
2021/12/05 17:26:24;;;;;;;11.18;4.03;;;4.00;99.90;;;;;;5021080;28;20025;-67
2021/12/05 17:29:03;;;;;;;11.20;4.32;;;4.00;99.90;;;;;;5021220;28;20584;-67
2021/12/05 17:31:33;;;;;;;9.83;3.03;;;4.00;99.90;;;;;;5022921;28;20108;-67
2021/12/05 17:34:02;;;;;;;;;;;3.90;99.90;;;;;;5020112;28;20022;-67
2021/12/05 17:36:30;;;;;;;8.25;4.00;;;3.90;99.90;;;;;;5020449;28;20309;-68
2021/12/05 17:39:18;;;;;;;16.98;4.47;;;3.90;99.90;;;;;;5022165;28;20665;-67
2021/12/05 17:41:47;;;;;;;12.05;5.60;;;4.00;99.90;;;;;;5020213;28;20053;-67
2021/12/05 17:44:16;;;;;;;11.57;5.90;;;4.00;99.90;;;;;;5019155;28;20021;-67
2021/12/05 17:46:43;;;;;;;19.58;7.32;;;4.10;99.90;;;;;;5018607;28;20028;-67
2021/12/05 17:49:11;;;;;;;20.63;7.38;;;4.00;99.90;;;;;;5014133;28;20235;-67
2021/12/05 17:51:39;;;;;;;16.20;6.30;;;4.10;99.90;;;;;;5014836;28;20033;-67
2021/12/05 17:54:12;;;;;;;15.20;6.95;;;4.10;99.90;;;;;;5025942;28;20022;-67
2021/12/05 17:56:48;;;;;;;11.90;5.88;;;4.10;99.90;;;;;;5020841;28;20393;-67
2021/12/05 17:59:46;;;;;;;20.50;6.32;;;4.20;99.90;;;;;;5016841;28;20112;-68
2021/12/05 18:04:58;;;;;;;11.40;4.43;;;4.00;99.90;;;;;;5018009;28;20053;-67
2021/12/05 18:07:24;;;;;;;10.82;5.55;;;4.00;99.90;;;;;;5023618;28;20781;-67
2021/12/05 18:09:50;;;;;;;11.73;5.05;;;3.90;99.90;;;;;;5022690;28;20060;-67
2021/12/05 18:12:32;;;;;;;12.48;4.20;;;3.90;99.90;;;;;;5021485;28;20104;-67
2021/12/05 18:14:58;;;;;;;12.98;5.13;;;4.10;99.90;;;;;;5020376;28;20601;-67
2021/12/05 18:17:24;;;;;;;10.32;3.97;;;4.00;99.90;;;;;;5022115;28;20021;-67
2021/12/05 18:19:49;;;;;;;7.90;3.58;;;4.00;99.90;;;;;;5018652;28;20488;-67
2021/12/05 18:22:15;;;;;;;11.25;4.82;;;3.90;99.90;;;;;;5014370;28;20022;-67
2021/12/05 18:24:43;;;;;;;10.05;4.40;;;3.90;99.90;;;;;;5021613;28;20025;-67
2021/12/05 18:27:09;;;;;;;15.95;5.05;;;3.80;99.90;;;;;;5020812;28;20087;-67
2021/12/05 18:29:35;;;;;;;10.18;4.95;;;3.90;99.90;;;;;;5022140;28;20071;-67